This is the latest recevied weather packets stored in our database for station/object SZENTESWX. If no packets are shown the sender has not sent any weather packets the latest 10 day(s).
| Time | Temp. | Humidity | Pressure | Rain* | Wind** | Luminosity | Snow |
|---|---|---|---|---|---|---|---|
| 1777954187 | 13.89° C | 48% | 1014 hPa | 0 mm | - | - | - |
| 1777943377 | 13.89° C | 48% | 1016 hPa | 0 mm | - | - | - |
| 1777940375 | 13.89° C | 48% | 1016 hPa | 0 mm | - | - | - |
| 1777939774 | 13.89° C | 48% | 1016 hPa | 0 mm | - | - | - |
| 1777937973 | 13.89° C | 48% | 1016 hPa | 0 mm | - | - | - |
| 1777934370 | 13.89° C | 48% | 1016 hPa | 0 mm | - | - | - |
| 1777931968 | 13.89° C | 48% | 1016 hPa | 0 mm | - | - | - |
| 1777931368 | 13.89° C | 48% | 1016 hPa | 0 mm | - | - | - |
| 1777929564 | 13.89° C | 48% | 1016 hPa | 0 mm | - | - | - |
| 1777927163 | 17.22° C | 42% | 1016 hPa | 0 mm | - | - | - |
| 1777924761 | 17.22° C | 42% | 1016 hPa | 0 mm | - | - | - |
| 1777923554 | 17.22° C | 42% | 1016 hPa | 0 mm | - | - | - |
| 1777922954 | 17.22° C | 42% | 1016 hPa | 0 mm | - | - | - |
| 1777922354 | 17.22° C | 42% | 1016 hPa | 0 mm | - | - | - |
| 1777919951 | 19.44° C | 35% | 1016 hPa | 0 mm | - | - | - |
| 1777919351 | 19.44° C | 35% | 1016 hPa | 0 mm | - | - | - |
| 1777918750 | 20° C | 36% | 1016 hPa | 0 mm | - | - | - |
| 1777918149 | 20° C | 36% | 1016 hPa | 0 mm | - | - | - |
| 1777916348 | 20.56° C | 38% | 1016 hPa | 0 mm | - | - | - |
| 1777915748 | 22.78° C | 32% | 1016 hPa | 0 mm | - | - | - |
| 1777915147 | 22.78° C | 32% | 1016 hPa | 0 mm | - | - | - |
| 1777914547 | 23.33° C | 33% | 1016 hPa | 0 mm | - | - | - |
| 1777913947 | 23.33° C | 36% | 1016 hPa | 0 mm | - | - | - |
| 1777912745 | 24.44° C | 30% | 1016 hPa | 0 mm | - | - | - |
| 1777912145 | 24.44° C | 30% | 1016 hPa | 0 mm | - | - | - |
* Rain latest hour (hover to see other rain measurements)
** Current wind speed in m/s (hover to see current wind gust speed)